sensor_id;sensor_type;location;lat;lon;timestamp;temperature;humidity
18207;DHT22;9229;52.354;20.886;2023-04-01T00:01:53;9.80;99.90
18207;DHT22;9229;52.354;20.886;2023-04-01T00:06:55;9.80;99.90
18207;DHT22;9229;52.354;20.886;2023-04-01T00:11:58;9.80;99.90
18207;DHT22;9229;52.354;20.886;2023-04-01T00:17:01;9.80;99.90
18207;DHT22;9229;52.354;20.886;2023-04-01T00:22:03;9.80;99.90
18207;DHT22;9229;52.354;20.886;2023-04-01T00:27:06;9.90;99.90
18207;DHT22;9229;52.354;20.886;2023-04-01T00:32:08;9.90;99.90
18207;DHT22;9229;52.354;20.886;2023-04-01T00:37:11;9.90;99.90
18207;DHT22;9229;52.354;20.886;2023-04-01T00:42:14;9.90;99.90
18207;DHT22;9229;52.354;20.886;2023-04-01T00:47:19;9.90;99.90
18207;DHT22;9229;52.354;20.886;2023-04-01T00:52:24;9.90;99.90
18207;DHT22;9229;52.354;20.886;2023-04-01T00:57:32;9.90;99.90
18207;DHT22;9229;52.354;20.886;2023-04-01T01:02:38;9.90;99.90
18207;DHT22;9229;52.354;20.886;2023-04-01T01:07:45;9.90;99.90
18207;DHT22;9229;52.354;20.886;2023-04-01T01:12:57;9.80;99.90
18207;DHT22;9229;52.354;20.886;2023-04-01T01:18:04;9.80;99.90
18207;DHT22;9229;52.354;20.886;2023-04-01T01:23:29;9.80;99.90
18207;DHT22;9229;52.354;20.886;2023-04-01T01:28:46;9.70;99.90
18207;DHT22;9229;52.354;20.886;2023-04-01T01:34:06;9.80;99.90
18207;DHT22;9229;52.354;20.886;2023-04-01T01:39:16;9.70;99.90
18207;DHT22;9229;52.354;20.886;2023-04-01T01:44:20;9.70;99.90
18207;DHT22;9229;52.354;20.886;2023-04-01T01:49:23;9.80;99.90
18207;DHT22;9229;52.354;20.886;2023-04-01T01:54:28;9.70;99.90
18207;DHT22;9229;52.354;20.886;2023-04-01T01:59:31;9.70;99.90
18207;DHT22;9229;52.354;20.886;2023-04-01T02:04:35;9.70;99.90
18207;DHT22;9229;52.354;20.886;2023-04-01T02:09:41;9.70;99.90
18207;DHT22;9229;52.354;20.886;2023-04-01T02:14:49;9.70;99.90
18207;DHT22;9229;52.354;20.886;2023-04-01T02:19:56;9.80;99.90
18207;DHT22;9229;52.354;20.886;2023-04-01T02:25:04;9.80;99.90
18207;DHT22;9229;52.354;20.886;2023-04-01T02:30:09;9.80;99.90
18207;DHT22;9229;52.354;20.886;2023-04-01T02:35:12;9.80;99.90
18207;DHT22;9229;52.354;20.886;2023-04-01T02:40:19;9.80;99.90
18207;DHT22;9229;52.354;20.886;2023-04-01T02:45:23;9.80;99.90
18207;DHT22;9229;52.354;20.886;2023-04-01T02:50:25;9.80;99.90
18207;DHT22;9229;52.354;20.886;2023-04-01T02:55:29;9.80;99.90
18207;DHT22;9229;52.354;20.886;2023-04-01T03:00:31;9.80;99.90
18207;DHT22;9229;52.354;20.886;2023-04-01T03:05:33;9.80;99.90
18207;DHT22;9229;52.354;20.886;2023-04-01T03:10:37;9.80;99.90
18207;DHT22;9229;52.354;20.886;2023-04-01T03:15:40;9.80;99.90
18207;DHT22;9229;52.354;20.886;2023-04-01T03:20:41;9.80;99.90
18207;DHT22;9229;52.354;20.886;2023-04-01T03:25:46;9.80;99.90
18207;DHT22;9229;52.354;20.886;2023-04-01T03:30:52;9.80;99.90
18207;DHT22;9229;52.354;20.886;2023-04-01T03:35:54;9.80;99.90
18207;DHT22;9229;52.354;20.886;2023-04-01T03:40:58;9.80;99.90
18207;DHT22;9229;52.354;20.886;2023-04-01T03:46:00;9.80;99.90
18207;DHT22;9229;52.354;20.886;2023-04-01T03:51:06;9.90;99.90
18207;DHT22;9229;52.354;20.886;2023-04-01T03:56:10;9.80;99.90
18207;DHT22;9229;52.354;20.886;2023-04-01T04:01:14;9.70;99.90
18207;DHT22;9229;52.354;20.886;2023-04-01T04:06:18;9.70;99.90
18207;DHT22;9229;52.354;20.886;2023-04-01T04:11:23;9.70;99.90
18207;DHT22;9229;52.354;20.886;2023-04-01T04:16:27;9.70;99.90
18207;DHT22;9229;52.354;20.886;2023-04-01T04:21:36;9.70;99.90
18207;DHT22;9229;52.354;20.886;2023-04-01T04:26:42;9.70;99.90
18207;DHT22;9229;52.354;20.886;2023-04-01T04:31:44;9.60;99.90
18207;DHT22;9229;52.354;20.886;2023-04-01T04:36:47;9.60;99.90
18207;DHT22;9229;52.354;20.886;2023-04-01T04:41:50;9.60;99.90
18207;DHT22;9229;52.354;20.886;2023-04-01T04:46:53;9.50;99.90
18207;DHT22;9229;52.354;20.886;2023-04-01T04:51:55;9.50;99.90
18207;DHT22;9229;52.354;20.886;2023-04-01T04:57:02;9.50;99.90
18207;DHT22;9229;52.354;20.886;2023-04-01T05:02:10;9.50;99.90
18207;DHT22;9229;52.354;20.886;2023-04-01T05:07:14;9.50;99.90
18207;DHT22;9229;52.354;20.886;2023-04-01T05:12:17;9.50;99.90
18207;DHT22;9229;52.354;20.886;2023-04-01T05:17:32;9.50;99.90
18207;DHT22;9229;52.354;20.886;2023-04-01T05:22:43;9.50;99.90
18207;DHT22;9229;52.354;20.886;2023-04-01T05:27:47;9.40;99.90
18207;DHT22;9229;52.354;20.886;2023-04-01T05:32:50;9.40;99.90
18207;DHT22;9229;52.354;20.886;2023-04-01T05:37:53;9.50;99.90
18207;DHT22;9229;52.354;20.886;2023-04-01T05:42:58;9.50;99.90
18207;DHT22;9229;52.354;20.886;2023-04-01T05:48:05;9.60;99.90
18207;DHT22;9229;52.354;20.886;2023-04-01T05:53:13;9.80;99.90
18207;DHT22;9229;52.354;20.886;2023-04-01T05:58:19;10.20;99.90
18207;DHT22;9229;52.354;20.886;2023-04-01T06:03:22;10.40;99.90
18207;DHT22;9229;52.354;20.886;2023-04-01T06:08:24;10.40;99.90
18207;DHT22;9229;52.354;20.886;2023-04-01T06:13:41;10.50;99.90
18207;DHT22;9229;52.354;20.886;2023-04-01T06:18:58;10.70;99.90
18207;DHT22;9229;52.354;20.886;2023-04-01T06:24:16;10.90;99.90
18207;DHT22;9229;52.354;20.886;2023-04-01T06:29:47;11.20;99.90
18207;DHT22;9229;52.354;20.886;2023-04-01T06:40:43;11.50;99.90
18207;DHT22;9229;52.354;20.886;2023-04-01T06:45:54;11.70;99.90
18207;DHT22;9229;52.354;20.886;2023-04-01T06:51:25;11.70;99.90
18207;DHT22;9229;52.354;20.886;2023-04-01T06:56:53;11.80;99.90
18207;DHT22;9229;52.354;20.886;2023-04-01T07:02:04;12.00;99.90
18207;DHT22;9229;52.354;20.886;2023-04-01T07:07:21;12.10;99.90
18207;DHT22;9229;52.354;20.886;2023-04-01T07:12:41;12.30;99.90
18207;DHT22;9229;52.354;20.886;2023-04-01T07:18:12;12.50;99.90
18207;DHT22;9229;52.354;20.886;2023-04-01T07:23:22;12.40;99.90
18207;DHT22;9229;52.354;20.886;2023-04-01T07:28:45;12.50;99.90
18207;DHT22;9229;52.354;20.886;2023-04-01T07:34:24;13.00;99.90
18207;DHT22;9229;52.354;20.886;2023-04-01T07:39:44;13.20;99.90
18207;DHT22;9229;52.354;20.886;2023-04-01T07:45:16;13.20;99.90
18207;DHT22;9229;52.354;20.886;2023-04-01T07:50:26;13.10;99.90
18207;DHT22;9229;52.354;20.886;2023-04-01T07:55:41;13.20;99.90
18207;DHT22;9229;52.354;20.886;2023-04-01T08:00:48;13.20;99.90
18207;DHT22;9229;52.354;20.886;2023-04-01T08:06:05;13.20;99.90
18207;DHT22;9229;52.354;20.886;2023-04-01T08:11:16;13.40;99.90
18207;DHT22;9229;52.354;20.886;2023-04-01T08:17:18;14.30;99.90
18207;DHT22;9229;52.354;20.886;2023-04-01T08:22:43;15.00;99.90
18207;DHT22;9229;52.354;20.886;2023-04-01T08:28:09;15.20;99.90
18207;DHT22;9229;52.354;20.886;2023-04-01T08:33:17;14.80;99.90
18207;DHT22;9229;52.354;20.886;2023-04-01T08:38:30;14.40;99.90
18207;DHT22;9229;52.354;20.886;2023-04-01T08:43:55;14.20;99.90
18207;DHT22;9229;52.354;20.886;2023-04-01T08:49:10;14.20;99.90
18207;DHT22;9229;52.354;20.886;2023-04-01T08:54:33;14.20;99.90
18207;DHT22;9229;52.354;20.886;2023-04-01T09:00:07;14.30;99.90
18207;DHT22;9229;52.354;20.886;2023-04-01T09:06:02;14.30;99.90
18207;DHT22;9229;52.354;20.886;2023-04-01T09:11:24;14.10;99.90
18207;DHT22;9229;52.354;20.886;2023-04-01T09:16:58;14.10;99.90
18207;DHT22;9229;52.354;20.886;2023-04-01T09:22:13;14.30;99.90
18207;DHT22;9229;52.354;20.886;2023-04-01T09:27:27;14.40;99.90
18207;DHT22;9229;52.354;20.886;2023-04-01T09:32:54;14.30;99.90
18207;DHT22;9229;52.354;20.886;2023-04-01T09:38:20;14.30;99.90
18207;DHT22;9229;52.354;20.886;2023-04-01T09:44:00;14.30;99.90
18207;DHT22;9229;52.354;20.886;2023-04-01T09:49:50;13.80;99.90
18207;DHT22;9229;52.354;20.886;2023-04-01T09:55:22;13.70;99.90
18207;DHT22;9229;52.354;20.886;2023-04-01T10:00:55;13.50;99.90
18207;DHT22;9229;52.354;20.886;2023-04-01T10:23:51;15.80;99.90
18207;DHT22;9229;52.354;20.886;2023-04-01T10:35:06;16.80;99.90
18207;DHT22;9229;52.354;20.886;2023-04-01T10:40:36;15.60;99.90
18207;DHT22;9229;52.354;20.886;2023-04-01T10:46:17;14.30;99.90
18207;DHT22;9229;52.354;20.886;2023-04-01T10:57:36;13.00;99.90
18207;DHT22;9229;52.354;20.886;2023-04-01T11:09:49;13.50;99.90
18207;DHT22;9229;52.354;20.886;2023-04-01T11:15:32;13.50;99.90
18207;DHT22;9229;52.354;20.886;2023-04-01T11:26:25;13.70;99.90
18207;DHT22;9229;52.354;20.886;2023-04-01T11:32:02;14.20;99.90
18207;DHT22;9229;52.354;20.886;2023-04-01T11:37:23;14.40;99.90
18207;DHT22;9229;52.354;20.886;2023-04-01T11:43:26;14.70;99.90
18207;DHT22;9229;52.354;20.886;2023-04-01T11:48:58;14.70;99.90
18207;DHT22;9229;52.354;20.886;2023-04-01T11:54:19;14.30;99.90
18207;DHT22;9229;52.354;20.886;2023-04-01T11:59:50;13.80;99.90
18207;DHT22;9229;52.354;20.886;2023-04-01T12:05:26;13.60;99.90
18207;DHT22;9229;52.354;20.886;2023-04-01T12:10:37;13.90;99.90
18207;DHT22;9229;52.354;20.886;2023-04-01T12:15:53;14.30;99.90
18207;DHT22;9229;52.354;20.886;2023-04-01T12:21:10;14.60;99.90
18207;DHT22;9229;52.354;20.886;2023-04-01T12:26:48;14.40;99.90
18207;DHT22;9229;52.354;20.886;2023-04-01T12:32:09;14.30;99.90
18207;DHT22;9229;52.354;20.886;2023-04-01T12:37:29;13.90;99.90
18207;DHT22;9229;52.354;20.886;2023-04-01T12:42:57;13.50;99.90
18207;DHT22;9229;52.354;20.886;2023-04-01T12:48:40;12.90;99.90
18207;DHT22;9229;52.354;20.886;2023-04-01T12:59:36;12.40;99.90
18207;DHT22;9229;52.354;20.886;2023-04-01T13:05:30;12.40;99.90
18207;DHT22;9229;52.354;20.886;2023-04-01T13:29:09;12.30;99.90
18207;DHT22;9229;52.354;20.886;2023-04-01T13:34:39;12.20;99.90
18207;DHT22;9229;52.354;20.886;2023-04-01T13:40:57;11.80;99.90
18207;DHT22;9229;52.354;20.886;2023-04-01T13:46:47;12.30;99.90
18207;DHT22;9229;52.354;20.886;2023-04-01T13:52:34;12.30;99.90
18207;DHT22;9229;52.354;20.886;2023-04-01T13:58:45;12.20;99.90
18207;DHT22;9229;52.354;20.886;2023-04-01T14:04:19;12.00;99.90
18207;DHT22;9229;52.354;20.886;2023-04-01T14:09:45;11.90;99.90
18207;DHT22;9229;52.354;20.886;2023-04-01T14:15:07;11.70;99.90
18207;DHT22;9229;52.354;20.886;2023-04-01T14:20:33;11.50;99.90
18207;DHT22;9229;52.354;20.886;2023-04-01T14:26:10;11.30;99.90
18207;DHT22;9229;52.354;20.886;2023-04-01T14:38:06;11.30;99.90
18207;DHT22;9229;52.354;20.886;2023-04-01T14:44:21;11.30;99.90
18207;DHT22;9229;52.354;20.886;2023-04-01T14:49:33;11.30;99.90
18207;DHT22;9229;52.354;20.886;2023-04-01T14:54:43;11.30;99.90
18207;DHT22;9229;52.354;20.886;2023-04-01T15:00:09;11.40;99.90
18207;DHT22;9229;52.354;20.886;2023-04-01T15:31:04;11.10;99.90
18207;DHT22;9229;52.354;20.886;2023-04-01T15:36:35;11.20;99.90
18207;DHT22;9229;52.354;20.886;2023-04-01T15:48:55;11.10;99.90
18207;DHT22;9229;52.354;20.886;2023-04-01T15:55:04;10.90;99.90
18207;DHT22;9229;52.354;20.886;2023-04-01T16:00:33;10.90;99.90
18207;DHT22;9229;52.354;20.886;2023-04-01T16:11:50;10.60;99.90
18207;DHT22;9229;52.354;20.886;2023-04-01T16:17:10;10.60;99.90
18207;DHT22;9229;52.354;20.886;2023-04-01T16:22:25;10.40;99.90
18207;DHT22;9229;52.354;20.886;2023-04-01T16:27:40;10.30;99.90
18207;DHT22;9229;52.354;20.886;2023-04-01T16:32:58;10.40;99.90
18207;DHT22;9229;52.354;20.886;2023-04-01T16:38:13;10.20;99.90
18207;DHT22;9229;52.354;20.886;2023-04-01T16:43:26;10.10;99.90
18207;DHT22;9229;52.354;20.886;2023-04-01T16:48:45;10.00;99.90
18207;DHT22;9229;52.354;20.886;2023-04-01T16:54:05;9.80;99.90
18207;DHT22;9229;52.354;20.886;2023-04-01T16:59:19;9.70;99.90
18207;DHT22;9229;52.354;20.886;2023-04-01T17:04:30;9.60;99.90
18207;DHT22;9229;52.354;20.886;2023-04-01T17:10:02;9.50;99.90
18207;DHT22;9229;52.354;20.886;2023-04-01T17:15:25;9.40;99.90
18207;DHT22;9229;52.354;20.886;2023-04-01T17:20:43;9.30;99.90
18207;DHT22;9229;52.354;20.886;2023-04-01T17:26:15;9.30;99.90
18207;DHT22;9229;52.354;20.886;2023-04-01T17:31:32;9.20;99.90
18207;DHT22;9229;52.354;20.886;2023-04-01T17:36:50;9.10;99.90
18207;DHT22;9229;52.354;20.886;2023-04-01T17:42:01;9.10;99.90
18207;DHT22;9229;52.354;20.886;2023-04-01T17:47:36;9.00;99.90
18207;DHT22;9229;52.354;20.886;2023-04-01T17:52:47;8.90;99.90
18207;DHT22;9229;52.354;20.886;2023-04-01T17:57:55;8.80;99.90
18207;DHT22;9229;52.354;20.886;2023-04-01T18:03:12;8.80;99.90
18207;DHT22;9229;52.354;20.886;2023-04-01T18:08:33;8.80;99.90
18207;DHT22;9229;52.354;20.886;2023-04-01T18:14:00;8.80;99.90
18207;DHT22;9229;52.354;20.886;2023-04-01T18:19:12;8.70;99.90
18207;DHT22;9229;52.354;20.886;2023-04-01T18:24:23;8.60;99.90
18207;DHT22;9229;52.354;20.886;2023-04-01T18:29:35;8.60;99.90
18207;DHT22;9229;52.354;20.886;2023-04-01T18:34:49;8.60;99.90
18207;DHT22;9229;52.354;20.886;2023-04-01T18:39:59;8.50;99.90
18207;DHT22;9229;52.354;20.886;2023-04-01T18:45:18;8.50;99.90
18207;DHT22;9229;52.354;20.886;2023-04-01T18:50:26;8.50;99.90
18207;DHT22;9229;52.354;20.886;2023-04-01T18:55:33;8.50;99.90
18207;DHT22;9229;52.354;20.886;2023-04-01T19:00:41;8.50;99.90
18207;DHT22;9229;52.354;20.886;2023-04-01T19:05:47;8.30;99.90
18207;DHT22;9229;52.354;20.886;2023-04-01T19:10:58;8.40;99.90
18207;DHT22;9229;52.354;20.886;2023-04-01T19:16:10;8.40;99.90
18207;DHT22;9229;52.354;20.886;2023-04-01T19:21:19;8.40;99.90
18207;DHT22;9229;52.354;20.886;2023-04-01T19:26:28;8.40;99.90
18207;DHT22;9229;52.354;20.886;2023-04-01T19:31:42;8.30;99.90
18207;DHT22;9229;52.354;20.886;2023-04-01T19:36:51;8.40;99.90
18207;DHT22;9229;52.354;20.886;2023-04-01T19:42:11;8.30;99.90
18207;DHT22;9229;52.354;20.886;2023-04-01T19:47:46;8.20;99.90
18207;DHT22;9229;52.354;20.886;2023-04-01T19:52:59;8.30;99.90
18207;DHT22;9229;52.354;20.886;2023-04-01T19:58:09;8.30;99.90
18207;DHT22;9229;52.354;20.886;2023-04-01T20:03:34;8.20;99.90
18207;DHT22;9229;52.354;20.886;2023-04-01T20:08:57;8.10;99.90
18207;DHT22;9229;52.354;20.886;2023-04-01T20:14:32;8.20;99.90
18207;DHT22;9229;52.354;20.886;2023-04-01T20:19:53;8.00;99.90
18207;DHT22;9229;52.354;20.886;2023-04-01T20:31:34;8.00;99.90
18207;DHT22;9229;52.354;20.886;2023-04-01T20:37:33;7.90;99.90
18207;DHT22;9229;52.354;20.886;2023-04-01T20:49:20;7.80;99.90
18207;DHT22;9229;52.354;20.886;2023-04-01T20:55:02;7.80;99.90
18207;DHT22;9229;52.354;20.886;2023-04-01T21:00:33;7.80;99.90
18207;DHT22;9229;52.354;20.886;2023-04-01T21:06:02;7.80;99.90
18207;DHT22;9229;52.354;20.886;2023-04-01T21:11:41;7.80;99.90
18207;DHT22;9229;52.354;20.886;2023-04-01T21:23:21;7.70;99.90
18207;DHT22;9229;52.354;20.886;2023-04-01T21:35:02;7.80;99.90
18207;DHT22;9229;52.354;20.886;2023-04-01T22:04:07;7.70;99.90
18207;DHT22;9229;52.354;20.886;2023-04-01T22:09:24;7.60;99.90
18207;DHT22;9229;52.354;20.886;2023-04-01T22:14:42;7.60;99.90
18207;DHT22;9229;52.354;20.886;2023-04-01T22:20:33;7.60;99.90
18207;DHT22;9229;52.354;20.886;2023-04-01T22:26:39;7.60;99.90
18207;DHT22;9229;52.354;20.886;2023-04-01T22:32:02;7.60;99.90
18207;DHT22;9229;52.354;20.886;2023-04-01T22:37:27;7.70;99.90
18207;DHT22;9229;52.354;20.886;2023-04-01T22:42:52;7.60;99.90
18207;DHT22;9229;52.354;20.886;2023-04-01T22:54:40;7.60;99.90
18207;DHT22;9229;52.354;20.886;2023-04-01T23:00:21;7.60;99.90
18207;DHT22;9229;52.354;20.886;2023-04-01T23:06:00;7.60;99.90
18207;DHT22;9229;52.354;20.886;2023-04-01T23:11:41;7.60;99.90
18207;DHT22;9229;52.354;20.886;2023-04-01T23:17:15;7.60;99.90
18207;DHT22;9229;52.354;20.886;2023-04-01T23:23:08;7.50;99.90
18207;DHT22;9229;52.354;20.886;2023-04-01T23:29:00;7.50;99.90
18207;DHT22;9229;52.354;20.886;2023-04-01T23:34:27;7.50;99.90
18207;DHT22;9229;52.354;20.886;2023-04-01T23:40:21;7.40;99.90
18207;DHT22;9229;52.354;20.886;2023-04-01T23:51:52;7.40;99.90
18207;DHT22;9229;52.354;20.886;2023-04-01T23:57:11;7.40;99.90
